createdAt,value
2022-11-03T00:02:13.545Z,40.22
2022-11-03T00:05:38.128Z,41.10
2022-11-03T00:08:44.602Z,43.33
2022-11-03T00:11:51.990Z,35.15
2022-11-03T00:14:57.326Z,44.65
2022-11-03T00:18:02.908Z,39.53
2022-11-03T00:21:11.069Z,42.03
2022-11-03T00:24:16.599Z,41.70
2022-11-03T00:27:21.926Z,36.50
2022-11-03T00:30:27.872Z,39.15
2022-11-03T00:33:34.124Z,42.40
2022-11-03T00:36:42.252Z,35.20
2022-11-03T00:39:47.493Z,35.90
2022-11-03T00:42:52.910Z,37.90
2022-11-03T00:45:59.324Z,40.60
2022-11-03T00:49:05.448Z,34.45
2022-11-03T00:52:11.039Z,41.80
2022-11-03T00:55:16.698Z,35.08
2022-11-03T00:58:22.749Z,40.28
2022-11-03T01:01:38.232Z,39.05
2022-11-03T01:05:06.560Z,41.38
2022-11-03T01:08:11.809Z,48.25
2022-11-03T01:11:39.372Z,36.80
2022-11-03T01:14:51.706Z,39.38
2022-11-03T01:17:58.654Z,37.83
2022-11-03T01:21:04.123Z,35.55
2022-11-03T01:24:09.675Z,40.60
2022-11-03T01:27:17.666Z,37.22
2022-11-03T01:30:23.380Z,38.03
2022-11-03T01:33:28.601Z,48.50
2022-11-03T01:36:34.049Z,42.05
2022-11-03T01:39:39.215Z,44.25
2022-11-03T01:42:44.441Z,37.47
2022-11-03T01:46:19.520Z,37.60
2022-11-03T01:49:51.429Z,41.35
2022-11-03T01:52:59.162Z,41.83
2022-11-03T01:56:05.540Z,36.47
2022-11-03T01:59:11.790Z,38.92
2022-11-03T02:02:17.062Z,47.20
2022-11-03T02:05:26.340Z,46.38
2022-11-03T02:08:53.732Z,46.75
2022-11-03T02:12:08.658Z,35.15
2022-11-03T02:15:19.029Z,38.22
2022-11-03T02:18:29.271Z,51.05
2022-11-03T02:21:49.416Z,45.95
2022-11-03T02:25:20.030Z,43.55
2022-11-03T02:28:28.284Z,41.45
2022-11-03T02:31:43.555Z,42.58
2022-11-03T02:34:57.166Z,45.45
2022-11-03T02:38:06.753Z,46.72
2022-11-03T02:41:13.662Z,47.65
2022-11-03T02:44:21.023Z,39.72
2022-11-03T02:47:30.763Z,45.00
2022-11-03T02:50:36.419Z,47.13
2022-11-03T02:54:28.575Z,40.13
2022-11-03T02:57:39.114Z,41.97
2022-11-03T03:00:53.952Z,39.85
2022-11-03T03:04:05.633Z,42.10
2022-11-03T03:07:20.093Z,36.67
2022-11-03T03:10:29.379Z,41.08
2022-11-03T03:13:35.051Z,47.10
2022-11-03T03:16:59.122Z,36.00
2022-11-03T03:20:14.439Z,39.67
2022-11-03T03:23:24.197Z,44.22
2022-11-03T03:26:42.793Z,41.55
2022-11-03T03:29:53.994Z,43.42
2022-11-03T03:33:01.825Z,46.17
2022-11-03T03:36:13.835Z,46.42
2022-11-03T03:39:22.634Z,41.60
2022-11-03T03:42:29.835Z,41.55
2022-11-03T03:45:37.231Z,36.33
2022-11-03T03:48:43.503Z,33.92
2022-11-03T03:51:50.668Z,39.72
2022-11-03T03:54:57.043Z,47.92
2022-11-03T03:58:04.572Z,44.50
2022-11-03T04:01:13.007Z,48.03
2022-11-03T04:04:19.241Z,46.75
2022-11-03T04:07:43.968Z,50.55
2022-11-03T04:11:08.304Z,43.38
2022-11-03T04:14:32.134Z,48.13
2022-11-03T04:18:02.496Z,39.38
2022-11-03T04:21:30.392Z,46.97
2022-11-03T04:24:35.757Z,43.45
2022-11-03T04:27:44.906Z,41.22
2022-11-03T04:30:53.379Z,45.90
2022-11-03T04:34:05.033Z,43.42
2022-11-03T04:37:14.364Z,49.83
2022-11-03T04:40:19.883Z,42.33
2022-11-03T04:43:37.392Z,47.70
2022-11-03T04:46:44.709Z,41.45
2022-11-03T04:49:50.257Z,40.35
2022-11-03T04:52:58.807Z,40.85
2022-11-03T04:56:15.819Z,42.42
2022-11-03T04:59:21.436Z,39.63
2022-11-03T05:02:27.267Z,42.10
2022-11-03T05:05:33.083Z,48.90
2022-11-03T05:08:38.855Z,49.47
2022-11-03T05:11:48.155Z,45.63
2022-11-03T05:14:58.033Z,43.25
2022-11-03T05:18:31.857Z,45.97
2022-11-03T05:21:37.527Z,47.58
2022-11-03T05:24:44.550Z,47.42
2022-11-03T05:27:49.921Z,44.30
2022-11-03T05:30:56.153Z,46.45
2022-11-03T05:34:07.624Z,45.25
2022-11-03T05:37:32.820Z,42.15
2022-11-03T05:40:38.236Z,47.33
2022-11-03T05:43:43.898Z,48.42
2022-11-03T05:46:49.589Z,38.58
2022-11-03T05:50:01.260Z,47.55
2022-11-03T05:56:26.425Z,37.15
2022-11-03T05:59:31.941Z,43.08
2022-11-03T06:02:43.694Z,46.67
2022-11-03T06:05:49.342Z,41.78
2022-11-03T06:08:58.273Z,37.55
2022-11-03T06:12:07.457Z,42.10
2022-11-03T06:15:28.119Z,40.75
2022-11-03T06:18:36.859Z,35.97
2022-11-03T06:21:44.782Z,42.25
2022-11-03T06:24:51.572Z,43.28
2022-11-03T06:28:02.420Z,40.90
2022-11-03T06:31:28.029Z,43.65
2022-11-03T06:34:57.884Z,39.15
2022-11-03T06:38:02.961Z,39.38
2022-11-03T06:41:21.051Z,37.65
2022-11-03T06:44:29.069Z,41.90
2022-11-03T06:47:34.665Z,39.42
2022-11-03T06:50:44.603Z,34.97
2022-11-03T06:53:52.606Z,37.08
2022-11-03T06:56:58.228Z,40.63
2022-11-03T07:00:33.468Z,37.22
2022-11-03T07:03:41.487Z,39.25
2022-11-03T07:06:53.588Z,43.70
2022-11-03T07:09:59.437Z,35.28
2022-11-03T07:13:20.399Z,44.42
2022-11-03T07:16:41.640Z,41.30
2022-11-03T07:19:46.822Z,40.55
2022-11-03T07:22:53.024Z,35.97
2022-11-03T07:26:02.537Z,37.22
2022-11-03T07:29:15.107Z,37.83
2022-11-03T07:32:24.555Z,39.22
2022-11-03T07:36:08.331Z,40.53
2022-11-03T07:39:03.807Z,37.22
2022-11-03T07:42:23.003Z,42.80
2022-11-03T07:45:37.389Z,38.35
2022-11-03T07:48:49.652Z,37.58
2022-11-03T07:52:00.408Z,41.00
2022-11-03T07:55:11.553Z,40.17
2022-11-03T07:58:28.665Z,40.63
2022-11-03T08:01:42.414Z,48.03
2022-11-03T08:04:48.003Z,61.15
2022-11-03T08:07:53.201Z,64.00
2022-11-03T08:10:59.268Z,51.72
2022-11-03T08:14:04.729Z,64.18
2022-11-03T08:17:10.321Z,55.45
2022-11-03T08:20:16.305Z,63.08
2022-11-03T08:23:26.373Z,54.40
2022-11-03T08:26:32.249Z,61.50
2022-11-03T08:29:37.533Z,60.88
2022-11-03T08:32:42.956Z,61.47
2022-11-03T08:35:47.892Z,55.63
2022-11-03T08:38:53.762Z,57.97
2022-11-03T08:41:59.025Z,66.55
2022-11-03T08:45:04.994Z,58.10
2022-11-03T08:48:10.281Z,61.55
2022-11-03T08:51:16.456Z,68.65
2022-11-03T08:54:21.772Z,67.75
2022-11-03T08:57:27.305Z,61.03
2022-11-03T09:00:35.919Z,76.68
2022-11-03T09:03:43.949Z,79.30
2022-11-03T09:06:49.365Z,94.30
2022-11-03T09:13:20.040Z,87.07
2022-11-03T09:16:25.099Z,75.22
2022-11-03T09:19:30.279Z,77.97
2022-11-03T09:22:35.808Z,82.78
2022-11-03T09:25:41.389Z,73.97
2022-11-03T09:28:46.711Z,78.85
2022-11-03T09:31:52.379Z,84.53
2022-11-03T09:34:57.437Z,82.93
2022-11-03T09:38:02.699Z,80.07
2022-11-03T09:41:18.720Z,79.32
2022-11-03T09:44:36.738Z,81.68
2022-11-03T09:47:45.707Z,83.75
2022-11-03T09:50:54.562Z,86.35
2022-11-03T09:54:04.870Z,86.00
2022-11-03T09:57:13.280Z,91.07
2022-11-03T10:00:23.879Z,92.22
2022-11-03T10:03:30.459Z,77.25
2022-11-03T10:06:35.647Z,94.80
2022-11-03T10:09:48.395Z,91.63
2022-11-03T10:12:56.282Z,88.55
2022-11-03T10:16:05.628Z,92.20
2022-11-03T10:19:14.539Z,95.32
2022-11-03T10:22:21.438Z,94.97
2022-11-03T10:25:43.900Z,92.32
2022-11-03T10:29:01.416Z,90.30
2022-11-03T10:32:31.484Z,87.78
2022-11-03T10:35:37.079Z,81.50
2022-11-03T10:38:46.298Z,75.18
2022-11-03T10:41:59.637Z,79.53
2022-11-03T10:45:14.816Z,83.88
2022-11-03T10:48:20.337Z,86.88
2022-11-03T10:51:26.119Z,88.07
2022-11-03T10:54:31.898Z,86.43
2022-11-03T10:57:37.939Z,86.85
2022-11-03T11:00:43.574Z,81.95
2022-11-03T11:03:49.998Z,75.32
2022-11-03T11:06:56.017Z,74.65
2022-11-03T11:10:19.791Z,79.53
2022-11-03T11:13:27.893Z,75.93
2022-11-03T11:16:57.573Z,78.47
2022-11-03T11:20:33.582Z,72.05
2022-11-03T11:23:39.350Z,75.18
2022-11-03T11:26:48.211Z,74.88
2022-11-03T11:29:53.886Z,67.55
2022-11-03T11:33:15.022Z,63.50
2022-11-03T11:36:23.808Z,72.20
2022-11-03T11:39:31.431Z,71.35
2022-11-03T11:43:03.014Z,64.03
2022-11-03T11:46:24.038Z,67.78
2022-11-03T11:49:29.518Z,64.47
2022-11-03T11:52:59.658Z,60.67
2022-11-03T11:56:05.848Z,62.50
2022-11-03T11:59:25.088Z,65.43
2022-11-03T12:02:31.453Z,59.28
2022-11-03T12:05:37.364Z,55.90
2022-11-03T12:08:44.381Z,61.08
2022-11-03T12:11:53.854Z,48.90
2022-11-03T12:15:00.965Z,54.15
2022-11-03T12:18:36.548Z,62.42
2022-11-03T12:21:49.895Z,58.47
2022-11-03T12:25:01.052Z,63.17
2022-11-03T12:28:06.814Z,54.25
2022-11-03T12:31:12.879Z,57.75
2022-11-03T12:34:18.636Z,62.28
2022-11-03T12:37:24.448Z,60.72
2022-11-03T12:40:29.903Z,66.88
2022-11-03T12:43:35.440Z,61.03
2022-11-03T12:46:40.945Z,58.65
2022-11-03T12:49:46.739Z,63.15
2022-11-03T12:52:52.277Z,65.53
2022-11-03T12:55:58.343Z,63.60
2022-11-03T12:59:04.383Z,72.38
2022-11-03T13:02:11.866Z,66.10
2022-11-03T13:05:17.578Z,67.32
2022-11-03T13:08:23.112Z,61.15
2022-11-03T13:11:47.178Z,64.45
2022-11-03T13:14:52.492Z,53.58
2022-11-03T13:18:14.255Z,61.60
2022-11-03T13:21:21.090Z,48.60
2022-11-03T13:24:26.733Z,54.38
2022-11-03T13:27:32.615Z,49.88
2022-11-03T13:30:37.856Z,56.75
2022-11-03T13:33:43.324Z,57.00
2022-11-03T13:36:48.582Z,48.58
2022-11-03T13:39:54.068Z,57.60
2022-11-03T13:42:59.213Z,52.40
2022-11-03T13:46:05.530Z,54.50
2022-11-03T13:52:37.470Z,61.22
2022-11-03T13:55:43.228Z,59.75
2022-11-03T14:05:42.163Z,56.78
2022-11-03T14:08:47.402Z,56.30
2022-11-03T14:12:11.491Z,52.80
2022-11-03T14:15:17.088Z,49.45
2022-11-03T14:18:22.536Z,55.95
2022-11-03T14:21:28.506Z,59.17
2022-11-03T14:24:33.933Z,51.45
2022-11-03T14:27:39.252Z,59.38
2022-11-03T14:30:44.363Z,55.28
2022-11-03T14:33:50.164Z,51.35
2022-11-03T14:36:55.873Z,57.00
2022-11-03T14:40:01.580Z,61.55
2022-11-03T14:43:07.344Z,55.03
2022-11-03T14:46:13.309Z,57.17
2022-11-03T14:49:19.290Z,64.65
2022-11-03T14:52:24.752Z,54.25
2022-11-03T14:55:30.377Z,63.60
2022-11-03T14:58:35.960Z,64.38
2022-11-03T15:01:41.403Z,69.88
2022-11-03T15:04:47.357Z,63.75
2022-11-03T15:07:52.597Z,61.47
2022-11-03T15:10:58.291Z,63.97
2022-11-03T15:14:04.347Z,73.90
2022-11-03T15:17:09.846Z,66.70
2022-11-03T15:20:15.198Z,68.43
2022-11-03T15:26:47.042Z,64.50
2022-11-03T15:29:52.632Z,70.65
2022-11-03T15:32:58.236Z,72.70
2022-11-03T15:36:04.929Z,71.25
2022-11-03T15:39:10.655Z,67.22
2022-11-03T15:42:15.988Z,78.72
2022-11-03T15:45:21.687Z,73.28
2022-11-03T15:48:32.052Z,76.22
2022-11-03T15:51:40.088Z,76.43
2022-11-03T15:54:45.494Z,84.72
2022-11-03T15:57:51.327Z,84.07
2022-11-03T16:00:57.163Z,84.97
2022-11-03T16:04:02.882Z,79.72
2022-11-03T16:07:08.881Z,84.35
2022-11-03T16:10:15.523Z,79.57
2022-11-03T16:13:20.965Z,68.63
2022-11-03T16:16:26.585Z,75.57
2022-11-03T16:19:32.220Z,78.13
2022-11-03T16:22:37.781Z,77.22
2022-11-03T16:25:43.338Z,82.80
2022-11-03T16:28:48.687Z,80.93
2022-11-03T16:31:54.460Z,77.30
2022-11-03T16:34:59.848Z,80.05
2022-11-03T16:38:06.732Z,93.65
2022-11-03T16:41:13.483Z,89.30
2022-11-03T16:44:18.739Z,96.20
2022-11-03T16:47:27.309Z,84.22
2022-11-03T16:50:33.477Z,94.53
2022-11-03T16:53:38.544Z,92.78
2022-11-03T16:56:44.717Z,90.65
2022-11-03T16:59:50.157Z,82.93
2022-11-03T17:02:55.541Z,89.57
2022-11-03T17:06:01.511Z,90.07
2022-11-03T17:09:07.038Z,88.22
2022-11-03T17:12:12.992Z,87.00
2022-11-03T17:15:18.911Z,101.28
2022-11-03T17:18:24.379Z,91.10
2022-11-03T17:21:30.199Z,88.85
2022-11-03T17:24:35.988Z,93.63
2022-11-03T17:28:03.911Z,96.03
2022-11-03T17:31:09.402Z,97.05
2022-11-03T17:34:23.096Z,91.68
2022-11-03T17:37:28.754Z,89.57
2022-11-03T17:40:35.054Z,94.70
2022-11-03T17:43:41.621Z,95.32
2022-11-03T17:46:46.974Z,94.93
2022-11-03T17:49:52.631Z,89.55
2022-11-03T17:52:58.276Z,97.05
2022-11-03T17:56:28.906Z,93.90
2022-11-03T17:59:30.132Z,109.65
2022-11-03T18:02:38.331Z,102.95
2022-11-03T18:05:45.286Z,97.57
2022-11-03T18:08:50.748Z,90.10
2022-11-03T18:12:15.066Z,94.93
2022-11-03T18:15:23.779Z,92.65
2022-11-03T18:18:38.095Z,96.70
2022-11-03T18:21:44.639Z,96.75
2022-11-03T18:24:52.146Z,89.82
2022-11-03T18:27:57.745Z,93.72
2022-11-03T18:31:03.523Z,96.85
2022-11-03T18:34:19.064Z,93.80
2022-11-03T18:37:24.822Z,99.95
2022-11-03T18:40:32.430Z,94.22
2022-11-03T18:43:38.200Z,94.18
2022-11-03T18:46:43.933Z,94.88
2022-11-03T18:49:49.450Z,108.85
2022-11-03T18:52:55.092Z,92.90
2022-11-03T18:56:01.843Z,101.15
2022-11-03T18:59:37.842Z,98.90
2022-11-03T19:02:43.563Z,96.78
2022-11-03T19:05:51.967Z,101.90
2022-11-03T19:09:00.629Z,101.88
2022-11-03T19:12:07.513Z,109.18
2022-11-03T19:15:23.133Z,104.97
2022-11-03T19:18:32.514Z,94.78
2022-11-03T19:21:37.625Z,103.03
2022-11-03T19:24:45.512Z,108.38
2022-11-03T19:27:50.991Z,108.18
2022-11-03T19:30:58.084Z,105.97
2022-11-03T19:34:07.629Z,98.32
2022-11-03T19:37:12.945Z,100.65
2022-11-03T19:40:20.644Z,99.72
2022-11-03T19:43:30.443Z,110.45
2022-11-03T19:46:41.959Z,107.05
2022-11-03T19:49:47.917Z,110.53
2022-11-03T19:53:04.283Z,106.38
2022-11-03T19:56:10.481Z,117.38
2022-11-03T19:59:18.184Z,133.40
2022-11-03T20:02:24.355Z,118.55
2022-11-03T20:05:30.796Z,111.93
2022-11-03T20:08:37.782Z,116.50
2022-11-03T20:11:43.629Z,124.35
2022-11-03T20:14:48.999Z,133.80
2022-11-03T20:17:54.319Z,133.00
2022-11-03T20:21:00.082Z,140.25
2022-11-03T20:24:06.220Z,146.27
2022-11-03T20:27:12.181Z,152.60
2022-11-03T20:30:21.036Z,138.18
2022-11-03T20:33:27.841Z,138.90
2022-11-03T20:36:33.936Z,150.27
2022-11-03T20:39:40.941Z,135.73
2022-11-03T20:42:49.137Z,147.50
2022-11-03T20:45:55.662Z,133.23
2022-11-03T20:49:01.478Z,145.15
2022-11-03T20:52:10.523Z,153.55
2022-11-03T20:55:24.734Z,141.77
2022-11-03T20:58:30.616Z,144.90
2022-11-03T21:01:36.765Z,151.90
2022-11-03T21:04:44.340Z,152.52
2022-11-03T21:07:50.750Z,141.27
2022-11-03T21:11:16.489Z,151.07
2022-11-03T21:14:26.199Z,150.85
2022-11-03T21:17:50.372Z,152.82
2022-11-03T21:20:56.277Z,150.23
2022-11-03T21:24:01.542Z,154.68
2022-11-03T21:27:07.187Z,163.25
2022-11-03T21:30:19.204Z,152.32
2022-11-03T21:33:27.298Z,176.25
2022-11-03T21:36:33.731Z,144.43
2022-11-03T21:39:39.449Z,152.25
2022-11-03T21:43:03.131Z,171.40
2022-11-03T21:46:11.313Z,164.23
2022-11-03T21:49:35.632Z,155.95
2022-11-03T21:52:40.722Z,150.70
2022-11-03T21:55:52.160Z,165.27
2022-11-03T22:02:04.591Z,164.02
2022-11-03T22:05:11.036Z,153.45
2022-11-03T22:08:16.535Z,145.63
2022-11-03T22:11:21.728Z,155.95
2022-11-03T22:14:29.411Z,174.77
2022-11-03T22:17:35.009Z,158.63
2022-11-03T22:20:59.389Z,152.85
2022-11-03T22:24:23.678Z,151.52
2022-11-03T22:27:31.273Z,157.88
2022-11-03T22:30:58.399Z,165.40
2022-11-03T22:34:22.499Z,153.52
2022-11-03T22:40:52.631Z,152.93
2022-11-03T22:44:16.545Z,160.23
2022-11-03T22:47:22.241Z,156.63
2022-11-03T22:50:27.534Z,148.23
2022-11-03T22:53:53.318Z,150.35
2022-11-03T22:56:58.605Z,153.30
2022-11-03T23:00:06.296Z,151.18
2022-11-03T23:03:11.835Z,154.45
2022-11-03T23:06:20.491Z,143.50
2022-11-03T23:09:25.630Z,138.38
2022-11-03T23:12:31.865Z,147.57
2022-11-03T23:15:43.902Z,131.48
2022-11-03T23:19:07.941Z,140.63
2022-11-03T23:22:13.224Z,144.40
2022-11-03T23:25:18.701Z,138.93
2022-11-03T23:28:24.211Z,139.00
2022-11-03T23:31:29.885Z,133.93
2022-11-03T23:34:35.823Z,131.55
2022-11-03T23:37:41.731Z,124.68
2022-11-03T23:40:47.314Z,127.53
2022-11-03T23:43:53.243Z,142.48
2022-11-03T23:47:17.126Z,132.65
2022-11-03T23:50:22.602Z,142.60
2022-11-03T23:53:27.641Z,119.38
2022-11-03T23:57:00.250Z,128.02
